sensor_id;sensor_type;location;lat;lon;timestamp;P1;durP1;ratioP1;P2;durP2;ratioP2
1400;SDS011;46518;48.842;8.926;2023-06-14T00:00:52;5.30;;;4.90;;
1400;SDS011;46518;48.842;8.926;2023-06-14T00:03:23;5.78;;;5.25;;
1400;SDS011;46518;48.842;8.926;2023-06-14T00:05:51;5.97;;;5.43;;
1400;SDS011;46518;48.842;8.926;2023-06-14T00:08:19;6.60;;;5.50;;
1400;SDS011;46518;48.842;8.926;2023-06-14T00:10:49;5.40;;;5.00;;
1400;SDS011;46518;48.842;8.926;2023-06-14T00:13:18;6.38;;;5.28;;
1400;SDS011;46518;48.842;8.926;2023-06-14T00:15:46;5.35;;;4.95;;
1400;SDS011;46518;48.842;8.926;2023-06-14T00:18:14;5.90;;;5.40;;
1400;SDS011;46518;48.842;8.926;2023-06-14T00:20:43;6.40;;;5.53;;
1400;SDS011;46518;48.842;8.926;2023-06-14T00:23:11;6.07;;;5.55;;
1400;SDS011;46518;48.842;8.926;2023-06-14T00:25:39;7.15;;;5.60;;
1400;SDS011;46518;48.842;8.926;2023-06-14T00:28:07;5.80;;;5.30;;
1400;SDS011;46518;48.842;8.926;2023-06-14T00:30:36;6.60;;;6.00;;
1400;SDS011;46518;48.842;8.926;2023-06-14T00:33:05;6.32;;;5.60;;
1400;SDS011;46518;48.842;8.926;2023-06-14T00:35:33;5.88;;;5.05;;
1400;SDS011;46518;48.842;8.926;2023-06-14T00:38:03;6.00;;;5.18;;
1400;SDS011;46518;48.842;8.926;2023-06-14T00:40:32;5.43;;;5.03;;
1400;SDS011;46518;48.842;8.926;2023-06-14T00:43:01;9.10;;;5.82;;
1400;SDS011;46518;48.842;8.926;2023-06-14T00:45:29;6.22;;;5.43;;
1400;SDS011;46518;48.842;8.926;2023-06-14T00:48:00;5.95;;;5.35;;
1400;SDS011;46518;48.842;8.926;2023-06-14T00:50:29;5.32;;;4.82;;
1400;SDS011;46518;48.842;8.926;2023-06-14T00:52:59;6.75;;;5.47;;
1400;SDS011;46518;48.842;8.926;2023-06-14T00:55:28;6.07;;;5.45;;
1400;SDS011;46518;48.842;8.926;2023-06-14T00:57:56;6.72;;;6.13;;
1400;SDS011;46518;48.842;8.926;2023-06-14T01:00:24;6.15;;;5.60;;
1400;SDS011;46518;48.842;8.926;2023-06-14T01:02:55;5.75;;;5.13;;
1400;SDS011;46518;48.842;8.926;2023-06-14T01:05:25;6.68;;;5.65;;
1400;SDS011;46518;48.842;8.926;2023-06-14T01:08:02;5.90;;;5.38;;
1400;SDS011;46518;48.842;8.926;2023-06-14T01:10:39;6.35;;;5.75;;
1400;SDS011;46518;48.842;8.926;2023-06-14T01:13:18;6.60;;;5.93;;
1400;SDS011;46518;48.842;8.926;2023-06-14T01:15:49;6.88;;;6.18;;
1400;SDS011;46518;48.842;8.926;2023-06-14T01:18:18;6.57;;;5.75;;
1400;SDS011;46518;48.842;8.926;2023-06-14T01:20:48;7.75;;;6.35;;
1400;SDS011;46518;48.842;8.926;2023-06-14T01:23:18;7.13;;;6.50;;
1400;SDS011;46518;48.842;8.926;2023-06-14T01:25:48;7.03;;;6.40;;
1400;SDS011;46518;48.842;8.926;2023-06-14T01:28:20;8.52;;;5.97;;
1400;SDS011;46518;48.842;8.926;2023-06-14T01:30:50;8.13;;;7.43;;
1400;SDS011;46518;48.842;8.926;2023-06-14T01:33:21;6.10;;;5.53;;
1400;SDS011;46518;48.842;8.926;2023-06-14T01:35:52;7.15;;;6.45;;
1400;SDS011;46518;48.842;8.926;2023-06-14T01:38:23;6.50;;;5.93;;
1400;SDS011;46518;48.842;8.926;2023-06-14T01:40:54;6.93;;;5.60;;
1400;SDS011;46518;48.842;8.926;2023-06-14T01:43:24;8.38;;;7.03;;
1400;SDS011;46518;48.842;8.926;2023-06-14T01:45:53;7.00;;;5.88;;
1400;SDS011;46518;48.842;8.926;2023-06-14T01:48:22;6.22;;;5.63;;
1400;SDS011;46518;48.842;8.926;2023-06-14T01:50:51;6.97;;;6.30;;
1400;SDS011;46518;48.842;8.926;2023-06-14T01:53:19;7.22;;;6.07;;
1400;SDS011;46518;48.842;8.926;2023-06-14T01:55:49;7.88;;;7.18;;
1400;SDS011;46518;48.842;8.926;2023-06-14T01:58:20;7.78;;;7.00;;
1400;SDS011;46518;48.842;8.926;2023-06-14T02:00:50;6.15;;;5.65;;
1400;SDS011;46518;48.842;8.926;2023-06-14T02:03:22;6.47;;;5.95;;
1400;SDS011;46518;48.842;8.926;2023-06-14T02:05:51;7.50;;;6.18;;
1400;SDS011;46518;48.842;8.926;2023-06-14T02:08:21;9.38;;;6.97;;
1400;SDS011;46518;48.842;8.926;2023-06-14T02:10:51;10.88;;;6.90;;
1400;SDS011;46518;48.842;8.926;2023-06-14T02:13:21;6.63;;;6.00;;
1400;SDS011;46518;48.842;8.926;2023-06-14T02:15:50;7.40;;;6.80;;
1400;SDS011;46518;48.842;8.926;2023-06-14T02:18:21;7.47;;;6.80;;
1400;SDS011;46518;48.842;8.926;2023-06-14T02:20:49;6.05;;;5.50;;
1400;SDS011;46518;48.842;8.926;2023-06-14T02:23:17;6.55;;;5.85;;
1400;SDS011;46518;48.842;8.926;2023-06-14T02:25:46;7.40;;;6.70;;
1400;SDS011;46518;48.842;8.926;2023-06-14T02:28:15;6.97;;;6.00;;
1400;SDS011;46518;48.842;8.926;2023-06-14T02:30:43;6.57;;;6.07;;
1400;SDS011;46518;48.842;8.926;2023-06-14T02:33:11;10.38;;;6.70;;
1400;SDS011;46518;48.842;8.926;2023-06-14T02:35:39;7.50;;;6.68;;
1400;SDS011;46518;48.842;8.926;2023-06-14T02:38:08;8.35;;;7.00;;
1400;SDS011;46518;48.842;8.926;2023-06-14T02:40:36;9.27;;;7.30;;
1400;SDS011;46518;48.842;8.926;2023-06-14T02:43:04;6.95;;;6.25;;
1400;SDS011;46518;48.842;8.926;2023-06-14T02:45:33;7.78;;;6.88;;
1400;SDS011;46518;48.842;8.926;2023-06-14T02:48:01;8.27;;;7.45;;
1400;SDS011;46518;48.842;8.926;2023-06-14T02:50:29;7.35;;;6.53;;
1400;SDS011;46518;48.842;8.926;2023-06-14T02:52:58;7.63;;;6.72;;
1400;SDS011;46518;48.842;8.926;2023-06-14T02:55:27;7.38;;;6.68;;
1400;SDS011;46518;48.842;8.926;2023-06-14T02:57:55;7.60;;;6.90;;
1400;SDS011;46518;48.842;8.926;2023-06-14T03:00:25;6.68;;;6.07;;
1400;SDS011;46518;48.842;8.926;2023-06-14T03:02:54;6.82;;;6.32;;
1400;SDS011;46518;48.842;8.926;2023-06-14T03:05:23;6.70;;;6.20;;
1400;SDS011;46518;48.842;8.926;2023-06-14T03:07:51;7.05;;;6.43;;
1400;SDS011;46518;48.842;8.926;2023-06-14T03:10:20;8.35;;;7.10;;
1400;SDS011;46518;48.842;8.926;2023-06-14T03:12:50;7.55;;;6.80;;
1400;SDS011;46518;48.842;8.926;2023-06-14T03:15:20;9.15;;;6.53;;
1400;SDS011;46518;48.842;8.926;2023-06-14T03:17:51;7.68;;;6.88;;
1400;SDS011;46518;48.842;8.926;2023-06-14T03:20:22;9.23;;;7.55;;
1400;SDS011;46518;48.842;8.926;2023-06-14T03:22:52;8.00;;;6.85;;
1400;SDS011;46518;48.842;8.926;2023-06-14T03:25:21;9.68;;;7.43;;
1400;SDS011;46518;48.842;8.926;2023-06-14T03:27:50;7.55;;;6.85;;
1400;SDS011;46518;48.842;8.926;2023-06-14T03:30:19;7.05;;;6.45;;
1400;SDS011;46518;48.842;8.926;2023-06-14T03:32:49;8.90;;;7.40;;
1400;SDS011;46518;48.842;8.926;2023-06-14T03:35:19;7.20;;;6.40;;
1400;SDS011;46518;48.842;8.926;2023-06-14T03:37:49;7.53;;;6.82;;
1400;SDS011;46518;48.842;8.926;2023-06-14T03:40:18;8.05;;;7.18;;
1400;SDS011;46518;48.842;8.926;2023-06-14T03:42:51;9.13;;;6.90;;
1400;SDS011;46518;48.842;8.926;2023-06-14T03:45:19;7.63;;;6.93;;
1400;SDS011;46518;48.842;8.926;2023-06-14T03:47:47;7.97;;;6.93;;
1400;SDS011;46518;48.842;8.926;2023-06-14T03:50:17;7.57;;;6.72;;
1400;SDS011;46518;48.842;8.926;2023-06-14T03:52:48;6.57;;;5.97;;
1400;SDS011;46518;48.842;8.926;2023-06-14T03:55:17;6.85;;;6.15;;
1400;SDS011;46518;48.842;8.926;2023-06-14T03:57:48;7.05;;;6.35;;
1400;SDS011;46518;48.842;8.926;2023-06-14T04:00:17;6.90;;;6.28;;
1400;SDS011;46518;48.842;8.926;2023-06-14T04:02:45;8.98;;;6.45;;
1400;SDS011;46518;48.842;8.926;2023-06-14T04:05:14;7.53;;;6.80;;
1400;SDS011;46518;48.842;8.926;2023-06-14T04:07:46;7.93;;;6.90;;
1400;SDS011;46518;48.842;8.926;2023-06-14T04:10:17;7.10;;;6.40;;
1400;SDS011;46518;48.842;8.926;2023-06-14T04:12:47;8.02;;;6.03;;
1400;SDS011;46518;48.842;8.926;2023-06-14T04:15:16;6.57;;;5.88;;
1400;SDS011;46518;48.842;8.926;2023-06-14T04:17:48;7.60;;;6.80;;
1400;SDS011;46518;48.842;8.926;2023-06-14T04:20:19;7.35;;;6.75;;
1400;SDS011;46518;48.842;8.926;2023-06-14T04:22:47;5.85;;;5.25;;
1400;SDS011;46518;48.842;8.926;2023-06-14T04:25:15;8.05;;;6.63;;
1400;SDS011;46518;48.842;8.926;2023-06-14T04:27:51;6.32;;;5.72;;
1400;SDS011;46518;48.842;8.926;2023-06-14T04:30:21;7.32;;;6.07;;
1400;SDS011;46518;48.842;8.926;2023-06-14T04:32:54;9.00;;;6.10;;
1400;SDS011;46518;48.842;8.926;2023-06-14T04:35:23;7.60;;;6.90;;
1400;SDS011;46518;48.842;8.926;2023-06-14T04:37:53;7.30;;;6.20;;
1400;SDS011;46518;48.842;8.926;2023-06-14T04:40:22;7.22;;;6.53;;
1400;SDS011;46518;48.842;8.926;2023-06-14T04:42:51;7.32;;;6.55;;
1400;SDS011;46518;48.842;8.926;2023-06-14T04:45:19;7.30;;;6.70;;
1400;SDS011;46518;48.842;8.926;2023-06-14T04:47:49;7.00;;;6.30;;
1400;SDS011;46518;48.842;8.926;2023-06-14T04:50:26;6.68;;;5.97;;
1400;SDS011;46518;48.842;8.926;2023-06-14T04:52:56;7.93;;;7.22;;
1400;SDS011;46518;48.842;8.926;2023-06-14T04:55:26;7.05;;;6.20;;
1400;SDS011;46518;48.842;8.926;2023-06-14T04:57:55;6.93;;;6.32;;
1400;SDS011;46518;48.842;8.926;2023-06-14T05:00:25;6.68;;;6.07;;
1400;SDS011;46518;48.842;8.926;2023-06-14T05:02:53;7.65;;;6.55;;
1400;SDS011;46518;48.842;8.926;2023-06-14T05:05:21;6.43;;;5.82;;
1400;SDS011;46518;48.842;8.926;2023-06-14T05:07:50;7.38;;;6.80;;
1400;SDS011;46518;48.842;8.926;2023-06-14T05:10:18;7.35;;;6.75;;
1400;SDS011;46518;48.842;8.926;2023-06-14T05:12:46;7.18;;;6.47;;
1400;SDS011;46518;48.842;8.926;2023-06-14T05:15:18;7.65;;;6.95;;
1400;SDS011;46518;48.842;8.926;2023-06-14T05:17:47;9.05;;;5.72;;
1400;SDS011;46518;48.842;8.926;2023-06-14T05:20:19;7.20;;;6.50;;
1400;SDS011;46518;48.842;8.926;2023-06-14T05:22:48;6.70;;;6.10;;
1400;SDS011;46518;48.842;8.926;2023-06-14T05:25:16;8.20;;;6.95;;
1400;SDS011;46518;48.842;8.926;2023-06-14T05:27:44;6.43;;;5.78;;
1400;SDS011;46518;48.842;8.926;2023-06-14T05:30:13;6.95;;;6.45;;
1400;SDS011;46518;48.842;8.926;2023-06-14T05:32:43;7.28;;;5.63;;
1400;SDS011;46518;48.842;8.926;2023-06-14T05:35:11;6.60;;;6.00;;
1400;SDS011;46518;48.842;8.926;2023-06-14T05:37:40;7.13;;;6.45;;
1400;SDS011;46518;48.842;8.926;2023-06-14T05:40:08;6.70;;;6.10;;
1400;SDS011;46518;48.842;8.926;2023-06-14T05:42:37;7.75;;;6.25;;
1400;SDS011;46518;48.842;8.926;2023-06-14T05:45:05;7.63;;;6.90;;
1400;SDS011;46518;48.842;8.926;2023-06-14T05:47:34;7.57;;;6.50;;
1400;SDS011;46518;48.842;8.926;2023-06-14T05:50:04;6.97;;;6.32;;
1400;SDS011;46518;48.842;8.926;2023-06-14T05:52:33;7.00;;;6.40;;
1400;SDS011;46518;48.842;8.926;2023-06-14T05:55:01;7.30;;;6.70;;
1400;SDS011;46518;48.842;8.926;2023-06-14T05:57:30;7.55;;;6.95;;
1400;SDS011;46518;48.842;8.926;2023-06-14T05:59:58;7.60;;;6.72;;
1400;SDS011;46518;48.842;8.926;2023-06-14T06:02:26;6.55;;;6.05;;
1400;SDS011;46518;48.842;8.926;2023-06-14T06:04:54;7.25;;;6.55;;
1400;SDS011;46518;48.842;8.926;2023-06-14T06:07:24;9.82;;;6.95;;
1400;SDS011;46518;48.842;8.926;2023-06-14T06:09:52;6.95;;;6.35;;
1400;SDS011;46518;48.842;8.926;2023-06-14T06:12:20;7.97;;;7.15;;
1400;SDS011;46518;48.842;8.926;2023-06-14T06:14:48;8.63;;;7.72;;
1400;SDS011;46518;48.842;8.926;2023-06-14T06:17:16;7.53;;;6.82;;
1400;SDS011;46518;48.842;8.926;2023-06-14T06:19:44;8.15;;;7.35;;
1400;SDS011;46518;48.842;8.926;2023-06-14T06:22:12;7.18;;;6.47;;
1400;SDS011;46518;48.842;8.926;2023-06-14T06:24:41;6.90;;;6.30;;
1400;SDS011;46518;48.842;8.926;2023-06-14T06:27:11;7.63;;;6.93;;
1400;SDS011;46518;48.842;8.926;2023-06-14T06:29:41;7.80;;;6.90;;
1400;SDS011;46518;48.842;8.926;2023-06-14T06:32:10;7.85;;;7.15;;
1400;SDS011;46518;48.842;8.926;2023-06-14T06:34:38;8.70;;;7.22;;
1400;SDS011;46518;48.842;8.926;2023-06-14T06:37:06;9.88;;;8.13;;
1400;SDS011;46518;48.842;8.926;2023-06-14T06:39:34;8.25;;;7.55;;
1400;SDS011;46518;48.842;8.926;2023-06-14T06:42:04;7.35;;;6.63;;
1400;SDS011;46518;48.842;8.926;2023-06-14T06:44:36;7.38;;;6.78;;
1400;SDS011;46518;48.842;8.926;2023-06-14T06:47:05;8.32;;;7.53;;
1400;SDS011;46518;48.842;8.926;2023-06-14T06:49:33;8.27;;;7.53;;
1400;SDS011;46518;48.842;8.926;2023-06-14T06:52:02;7.65;;;6.57;;
1400;SDS011;46518;48.842;8.926;2023-06-14T06:54:31;7.28;;;6.68;;
1400;SDS011;46518;48.842;8.926;2023-06-14T06:57:02;7.40;;;6.80;;
1400;SDS011;46518;48.842;8.926;2023-06-14T06:59:32;7.95;;;7.25;;
1400;SDS011;46518;48.842;8.926;2023-06-14T07:02:00;7.13;;;6.00;;
1400;SDS011;46518;48.842;8.926;2023-06-14T07:04:28;7.75;;;7.05;;
1400;SDS011;46518;48.842;8.926;2023-06-14T07:06:57;6.85;;;6.20;;
1400;SDS011;46518;48.842;8.926;2023-06-14T07:09:26;7.25;;;6.65;;
1400;SDS011;46518;48.842;8.926;2023-06-14T07:11:54;7.40;;;6.70;;
1400;SDS011;46518;48.842;8.926;2023-06-14T07:14:23;7.32;;;6.63;;
1400;SDS011;46518;48.842;8.926;2023-06-14T07:16:51;7.80;;;7.10;;
1400;SDS011;46518;48.842;8.926;2023-06-14T07:19:19;8.10;;;7.38;;
1400;SDS011;46518;48.842;8.926;2023-06-14T07:21:47;6.82;;;6.22;;
1400;SDS011;46518;48.842;8.926;2023-06-14T07:24:17;8.25;;;7.50;;
1400;SDS011;46518;48.842;8.926;2023-06-14T07:26:47;6.72;;;6.15;;
1400;SDS011;46518;48.842;8.926;2023-06-14T07:29:19;7.13;;;6.47;;
1400;SDS011;46518;48.842;8.926;2023-06-14T07:31:49;8.00;;;6.90;;
1400;SDS011;46518;48.842;8.926;2023-06-14T07:34:17;7.80;;;7.10;;
1400;SDS011;46518;48.842;8.926;2023-06-14T07:36:45;6.90;;;6.30;;
1400;SDS011;46518;48.842;8.926;2023-06-14T07:39:14;8.52;;;6.60;;
1400;SDS011;46518;48.842;8.926;2023-06-14T07:41:42;6.85;;;6.25;;
1400;SDS011;46518;48.842;8.926;2023-06-14T07:44:10;7.22;;;6.63;;
1400;SDS011;46518;48.842;8.926;2023-06-14T07:47:26;11.75;;;7.18;;
1400;SDS011;46518;48.842;8.926;2023-06-14T07:49:54;7.25;;;6.65;;
1400;SDS011;46518;48.842;8.926;2023-06-14T07:52:22;7.22;;;6.65;;
1400;SDS011;46518;48.842;8.926;2023-06-14T07:54:51;7.45;;;6.75;;
1400;SDS011;46518;48.842;8.926;2023-06-14T07:57:19;7.95;;;6.38;;
1400;SDS011;46518;48.842;8.926;2023-06-14T07:59:47;7.07;;;6.38;;
1400;SDS011;46518;48.842;8.926;2023-06-14T08:02:15;7.85;;;7.18;;
1400;SDS011;46518;48.842;8.926;2023-06-14T08:04:45;7.35;;;6.78;;
1400;SDS011;46518;48.842;8.926;2023-06-14T08:07:15;6.97;;;6.30;;
1400;SDS011;46518;48.842;8.926;2023-06-14T08:09:43;9.93;;;6.22;;
1400;SDS011;46518;48.842;8.926;2023-06-14T08:12:11;12.73;;;8.77;;
1400;SDS011;46518;48.842;8.926;2023-06-14T08:14:39;9.10;;;8.25;;
1400;SDS011;46518;48.842;8.926;2023-06-14T08:17:07;6.47;;;5.95;;
1400;SDS011;46518;48.842;8.926;2023-06-14T08:19:35;6.77;;;6.27;;
1400;SDS011;46518;48.842;8.926;2023-06-14T08:22:05;7.23;;;6.50;;
1400;SDS011;46518;48.842;8.926;2023-06-14T08:24:34;7.28;;;6.68;;
1400;SDS011;46518;48.842;8.926;2023-06-14T08:27:02;8.23;;;7.57;;
1400;SDS011;46518;48.842;8.926;2023-06-14T08:29:31;8.90;;;8.07;;
1400;SDS011;46518;48.842;8.926;2023-06-14T08:31:59;8.60;;;7.80;;
1400;SDS011;46518;48.842;8.926;2023-06-14T08:34:28;7.20;;;6.50;;
1400;SDS011;46518;48.842;8.926;2023-06-14T08:36:56;7.10;;;6.50;;
1400;SDS011;46518;48.842;8.926;2023-06-14T08:39:25;7.70;;;7.00;;
1400;SDS011;46518;48.842;8.926;2023-06-14T08:41:54;7.30;;;6.70;;
1400;SDS011;46518;48.842;8.926;2023-06-14T08:47:10;8.67;;;7.80;;
1400;SDS011;46518;48.842;8.926;2023-06-14T08:49:43;8.43;;;7.63;;
1400;SDS011;46518;48.842;8.926;2023-06-14T08:52:15;7.70;;;6.90;;
1400;SDS011;46518;48.842;8.926;2023-06-14T08:54:50;7.67;;;6.80;;
1400;SDS011;46518;48.842;8.926;2023-06-14T08:57:18;8.20;;;6.80;;
1400;SDS011;46518;48.842;8.926;2023-06-14T08:59:48;8.03;;;7.17;;
1400;SDS011;46518;48.842;8.926;2023-06-14T09:02:19;7.57;;;6.90;;
1400;SDS011;46518;48.842;8.926;2023-06-14T09:04:49;7.37;;;6.80;;
1400;SDS011;46518;48.842;8.926;2023-06-14T09:07:17;7.43;;;6.70;;
1400;SDS011;46518;48.842;8.926;2023-06-14T09:09:45;7.20;;;6.60;;
1400;SDS011;46518;48.842;8.926;2023-06-14T09:12:33;7.07;;;6.47;;
1400;SDS011;46518;48.842;8.926;2023-06-14T09:15:02;7.20;;;6.57;;
1400;SDS011;46518;48.842;8.926;2023-06-14T09:17:32;7.93;;;7.23;;
1400;SDS011;46518;48.842;8.926;2023-06-14T09:20:01;7.60;;;7.00;;
1400;SDS011;46518;48.842;8.926;2023-06-14T09:22:32;7.70;;;6.97;;
1400;SDS011;46518;48.842;8.926;2023-06-14T09:25:01;7.30;;;6.70;;
1400;SDS011;46518;48.842;8.926;2023-06-14T09:27:29;6.83;;;6.13;;
1400;SDS011;46518;48.842;8.926;2023-06-14T09:30:02;8.40;;;7.60;;
1400;SDS011;46518;48.842;8.926;2023-06-14T09:32:32;6.80;;;6.30;;
1400;SDS011;46518;48.842;8.926;2023-06-14T09:35:06;7.40;;;6.70;;
1400;SDS011;46518;48.842;8.926;2023-06-14T09:37:35;9.13;;;7.30;;
1400;SDS011;46518;48.842;8.926;2023-06-14T09:40:05;7.57;;;6.87;;
1400;SDS011;46518;48.842;8.926;2023-06-14T09:42:34;8.27;;;6.60;;
1400;SDS011;46518;48.842;8.926;2023-06-14T09:45:05;6.83;;;6.23;;
1400;SDS011;46518;48.842;8.926;2023-06-14T09:47:33;6.80;;;6.20;;
1400;SDS011;46518;48.842;8.926;2023-06-14T09:50:02;8.07;;;7.00;;
1400;SDS011;46518;48.842;8.926;2023-06-14T09:52:30;7.40;;;6.80;;
1400;SDS011;46518;48.842;8.926;2023-06-14T09:54:59;7.30;;;6.10;;
1400;SDS011;46518;48.842;8.926;2023-06-14T09:57:28;7.43;;;6.83;;
1400;SDS011;46518;48.842;8.926;2023-06-14T09:59:59;6.77;;;6.10;;
1400;SDS011;46518;48.842;8.926;2023-06-14T10:02:39;7.80;;;5.90;;
1400;SDS011;46518;48.842;8.926;2023-06-14T10:05:15;6.90;;;6.40;;
1400;SDS011;46518;48.842;8.926;2023-06-14T10:07:48;7.93;;;7.27;;
1400;SDS011;46518;48.842;8.926;2023-06-14T10:10:20;6.03;;;5.43;;
1400;SDS011;46518;48.842;8.926;2023-06-14T10:12:48;7.30;;;6.67;;
1400;SDS011;46518;48.842;8.926;2023-06-14T10:15:18;7.70;;;5.60;;
1400;SDS011;46518;48.842;8.926;2023-06-14T10:17:52;5.97;;;5.50;;
1400;SDS011;46518;48.842;8.926;2023-06-14T10:20:28;6.47;;;5.97;;
1400;SDS011;46518;48.842;8.926;2023-06-14T10:23:06;7.30;;;6.10;;
1400;SDS011;46518;48.842;8.926;2023-06-14T10:25:38;8.70;;;7.00;;
1400;SDS011;46518;48.842;8.926;2023-06-14T10:28:16;9.27;;;5.90;;
1400;SDS011;46518;48.842;8.926;2023-06-14T10:33:49;5.53;;;5.03;;
1400;SDS011;46518;48.842;8.926;2023-06-14T10:36:25;5.80;;;5.30;;
1400;SDS011;46518;48.842;8.926;2023-06-14T10:38:58;8.93;;;6.20;;
1400;SDS011;46518;48.842;8.926;2023-06-14T10:41:34;6.07;;;5.53;;
1400;SDS011;46518;48.842;8.926;2023-06-14T10:47:10;6.07;;;5.57;;
1400;SDS011;46518;48.842;8.926;2023-06-14T10:49:51;6.40;;;5.30;;
1400;SDS011;46518;48.842;8.926;2023-06-14T10:52:22;6.30;;;5.70;;
1400;SDS011;46518;48.842;8.926;2023-06-14T10:54:55;8.50;;;5.57;;
1400;SDS011;46518;48.842;8.926;2023-06-14T10:57:27;5.37;;;4.87;;
1400;SDS011;46518;48.842;8.926;2023-06-14T11:00:07;5.50;;;4.97;;
1400;SDS011;46518;48.842;8.926;2023-06-14T11:05:52;8.40;;;6.17;;
1400;SDS011;46518;48.842;8.926;2023-06-14T11:11:47;6.80;;;5.07;;
1400;SDS011;46518;48.842;8.926;2023-06-14T11:14:16;6.03;;;5.43;;
1400;SDS011;46518;48.842;8.926;2023-06-14T11:16:47;6.07;;;5.20;;
1400;SDS011;46518;48.842;8.926;2023-06-14T11:19:16;5.97;;;5.47;;
1400;SDS011;46518;48.842;8.926;2023-06-14T11:21:48;5.47;;;4.97;;
1400;SDS011;46518;48.842;8.926;2023-06-14T11:24:17;6.43;;;5.03;;
1400;SDS011;46518;48.842;8.926;2023-06-14T11:26:46;5.33;;;4.90;;
1400;SDS011;46518;48.842;8.926;2023-06-14T11:29:15;6.63;;;5.30;;
1400;SDS011;46518;48.842;8.926;2023-06-14T11:31:43;5.70;;;5.20;;
1400;SDS011;46518;48.842;8.926;2023-06-14T11:34:13;6.50;;;5.90;;
1400;SDS011;46518;48.842;8.926;2023-06-14T11:36:43;5.47;;;5.07;;
1400;SDS011;46518;48.842;8.926;2023-06-14T11:39:14;6.97;;;5.73;;
1400;SDS011;46518;48.842;8.926;2023-06-14T11:41:43;6.37;;;5.80;;
1400;SDS011;46518;48.842;8.926;2023-06-14T11:44:12;7.87;;;6.17;;
1400;SDS011;46518;48.842;8.926;2023-06-14T11:46:40;6.23;;;5.57;;
1400;SDS011;46518;48.842;8.926;2023-06-14T11:49:09;7.03;;;5.50;;
1400;SDS011;46518;48.842;8.926;2023-06-14T11:51:37;5.80;;;5.30;;
1400;SDS011;46518;48.842;8.926;2023-06-14T11:54:06;5.80;;;5.33;;
1400;SDS011;46518;48.842;8.926;2023-06-14T11:56:36;10.67;;;6.00;;
1400;SDS011;46518;48.842;8.926;2023-06-14T11:59:05;7.97;;;5.40;;
1400;SDS011;46518;48.842;8.926;2023-06-14T12:01:35;5.87;;;4.97;;
1400;SDS011;46518;48.842;8.926;2023-06-14T12:04:06;5.83;;;5.30;;
1400;SDS011;46518;48.842;8.926;2023-06-14T12:06:34;6.87;;;5.83;;
1400;SDS011;46518;48.842;8.926;2023-06-14T12:09:06;6.67;;;6.00;;
1400;SDS011;46518;48.842;8.926;2023-06-14T12:11:40;7.17;;;5.03;;
1400;SDS011;46518;48.842;8.926;2023-06-14T12:14:09;5.73;;;5.23;;
1400;SDS011;46518;48.842;8.926;2023-06-14T12:16:38;5.73;;;5.23;;
1400;SDS011;46518;48.842;8.926;2023-06-14T12:19:09;5.33;;;4.43;;
1400;SDS011;46518;48.842;8.926;2023-06-14T12:21:40;5.53;;;5.03;;
1400;SDS011;46518;48.842;8.926;2023-06-14T12:24:09;6.60;;;6.00;;
1400;SDS011;46518;48.842;8.926;2023-06-14T12:26:42;5.50;;;5.00;;
1400;SDS011;46518;48.842;8.926;2023-06-14T12:29:10;7.00;;;5.83;;
1400;SDS011;46518;48.842;8.926;2023-06-14T12:31:40;6.37;;;5.77;;
1400;SDS011;46518;48.842;8.926;2023-06-14T12:34:09;6.10;;;5.60;;
1400;SDS011;46518;48.842;8.926;2023-06-14T12:36:37;6.80;;;5.60;;
1400;SDS011;46518;48.842;8.926;2023-06-14T12:39:11;6.83;;;5.23;;
1400;SDS011;46518;48.842;8.926;2023-06-14T12:41:39;6.07;;;5.47;;
1400;SDS011;46518;48.842;8.926;2023-06-14T12:44:10;5.73;;;5.23;;
1400;SDS011;46518;48.842;8.926;2023-06-14T12:46:38;7.60;;;6.90;;
1400;SDS011;46518;48.842;8.926;2023-06-14T12:49:08;9.17;;;5.37;;
1400;SDS011;46518;48.842;8.926;2023-06-14T12:51:37;5.00;;;4.60;;
1400;SDS011;46518;48.842;8.926;2023-06-14T12:54:06;6.07;;;5.50;;
1400;SDS011;46518;48.842;8.926;2023-06-14T12:56:34;5.93;;;5.53;;
1400;SDS011;46518;48.842;8.926;2023-06-14T12:59:03;7.47;;;5.77;;
1400;SDS011;46518;48.842;8.926;2023-06-14T13:01:34;6.53;;;4.60;;
1400;SDS011;46518;48.842;8.926;2023-06-14T13:04:02;8.07;;;5.90;;
1400;SDS011;46518;48.842;8.926;2023-06-14T13:06:31;6.30;;;5.70;;
1400;SDS011;46518;48.842;8.926;2023-06-14T13:08:59;6.97;;;6.17;;
1400;SDS011;46518;48.842;8.926;2023-06-14T13:11:28;8.37;;;5.50;;
1400;SDS011;46518;48.842;8.926;2023-06-14T13:13:57;6.43;;;5.90;;
1400;SDS011;46518;48.842;8.926;2023-06-14T13:16:28;5.43;;;5.03;;
1400;SDS011;46518;48.842;8.926;2023-06-14T13:18:58;10.43;;;9.30;;
1400;SDS011;46518;48.842;8.926;2023-06-14T13:21:26;7.50;;;5.77;;
1400;SDS011;46518;48.842;8.926;2023-06-14T13:23:54;5.43;;;4.93;;
1400;SDS011;46518;48.842;8.926;2023-06-14T13:26:23;6.80;;;5.13;;
1400;SDS011;46518;48.842;8.926;2023-06-14T13:28:51;5.13;;;4.57;;
1400;SDS011;46518;48.842;8.926;2023-06-14T13:31:20;6.27;;;5.70;;
1400;SDS011;46518;48.842;8.926;2023-06-14T13:33:48;5.20;;;4.80;;
1400;SDS011;46518;48.842;8.926;2023-06-14T13:36:18;5.90;;;4.73;;
1400;SDS011;46518;48.842;8.926;2023-06-14T13:38:46;4.97;;;4.27;;
1400;SDS011;46518;48.842;8.926;2023-06-14T13:41:15;6.17;;;5.57;;
1400;SDS011;46518;48.842;8.926;2023-06-14T13:43:43;5.90;;;5.30;;
1400;SDS011;46518;48.842;8.926;2023-06-14T13:46:11;6.17;;;5.57;;
1400;SDS011;46518;48.842;8.926;2023-06-14T13:48:40;5.90;;;5.37;;
1400;SDS011;46518;48.842;8.926;2023-06-14T13:51:08;7.07;;;5.47;;
1400;SDS011;46518;48.842;8.926;2023-06-14T13:53:38;8.23;;;5.43;;
1400;SDS011;46518;48.842;8.926;2023-06-14T13:56:06;5.80;;;5.33;;
1400;SDS011;46518;48.842;8.926;2023-06-14T13:58:34;7.67;;;5.47;;
1400;SDS011;46518;48.842;8.926;2023-06-14T14:01:03;6.43;;;5.93;;
1400;SDS011;46518;48.842;8.926;2023-06-14T14:03:31;4.90;;;4.50;;
1400;SDS011;46518;48.842;8.926;2023-06-14T14:06:00;7.03;;;5.37;;
1400;SDS011;46518;48.842;8.926;2023-06-14T14:08:28;6.17;;;5.63;;
1400;SDS011;46518;48.842;8.926;2023-06-14T14:10:58;7.37;;;5.93;;
1400;SDS011;46518;48.842;8.926;2023-06-14T14:13:26;5.63;;;5.10;;
1400;SDS011;46518;48.842;8.926;2023-06-14T14:15:54;4.97;;;4.57;;
1400;SDS011;46518;48.842;8.926;2023-06-14T14:18:23;4.77;;;4.27;;
1400;SDS011;46518;48.842;8.926;2023-06-14T14:20:51;5.97;;;5.47;;
1400;SDS011;46518;48.842;8.926;2023-06-14T14:23:19;6.43;;;5.83;;
1400;SDS011;46518;48.842;8.926;2023-06-14T14:25:48;6.17;;;5.63;;
1400;SDS011;46518;48.842;8.926;2023-06-14T14:28:18;6.17;;;5.57;;
1400;SDS011;46518;48.842;8.926;2023-06-14T14:30:47;9.50;;;5.93;;
1400;SDS011;46518;48.842;8.926;2023-06-14T14:33:15;6.10;;;5.60;;
1400;SDS011;46518;48.842;8.926;2023-06-14T14:35:44;6.23;;;5.43;;
1400;SDS011;46518;48.842;8.926;2023-06-14T14:38:13;5.47;;;5.00;;
1400;SDS011;46518;48.842;8.926;2023-06-14T14:40:43;5.40;;;5.00;;
1400;SDS011;46518;48.842;8.926;2023-06-14T14:43:12;6.00;;;5.50;;
1400;SDS011;46518;48.842;8.926;2023-06-14T14:45:41;10.90;;;6.53;;
1400;SDS011;46518;48.842;8.926;2023-06-14T14:48:10;10.30;;;5.37;;
1400;SDS011;46518;48.842;8.926;2023-06-14T14:50:38;5.30;;;4.90;;
1400;SDS011;46518;48.842;8.926;2023-06-14T14:53:06;5.33;;;4.93;;
1400;SDS011;46518;48.842;8.926;2023-06-14T14:55:35;6.93;;;5.50;;
1400;SDS011;46518;48.842;8.926;2023-06-14T14:58:04;6.53;;;5.43;;
1400;SDS011;46518;48.842;8.926;2023-06-14T15:00:33;6.17;;;5.57;;
1400;SDS011;46518;48.842;8.926;2023-06-14T15:03:03;5.60;;;5.20;;
1400;SDS011;46518;48.842;8.926;2023-06-14T15:05:32;8.30;;;6.10;;
1400;SDS011;46518;48.842;8.926;2023-06-14T15:08:00;5.60;;;5.10;;
1400;SDS011;46518;48.842;8.926;2023-06-14T15:10:28;5.90;;;5.40;;
1400;SDS011;46518;48.842;8.926;2023-06-14T15:12:57;5.83;;;5.33;;
1400;SDS011;46518;48.842;8.926;2023-06-14T15:15:25;5.97;;;5.47;;
1400;SDS011;46518;48.842;8.926;2023-06-14T15:17:53;5.53;;;5.00;;
1400;SDS011;46518;48.842;8.926;2023-06-14T15:20:23;6.77;;;5.23;;
1400;SDS011;46518;48.842;8.926;2023-06-14T15:22:51;6.07;;;5.47;;
1400;SDS011;46518;48.842;8.926;2023-06-14T15:25:20;5.77;;;5.30;;
1400;SDS011;46518;48.842;8.926;2023-06-14T15:27:48;4.70;;;4.30;;
1400;SDS011;46518;48.842;8.926;2023-06-14T15:30:17;5.67;;;5.03;;